Time;durP1;ratioP1;P1;durP2;ratioP2;P2;SDS_P1;SDS_P2;PMS_P1;PMS_P2;Temp;Humidity;BMP_temperature;BMP_pressure;BME280_temperature;BME280_humidity;BME280_pressure;Samples;Min_cycle;Max_cycle;Signal;HPM_P1;HPM_P2
2022/05/13 00:01:09;;;;;;;11.83;8.78;;;;;;;12.89;74.41;95866.66;1834904;78;21023;-68
2022/05/13 00:03:37;;;;;;;10.30;8.13;;;;;;;12.90;74.40;95864.45;1835028;78;20989;-68
2022/05/13 00:06:05;;;;;;;9.18;7.87;;;;;;;12.86;74.42;95857.94;1802572;78;21094;-68
2022/05/13 00:08:33;;;;;;;11.03;8.20;;;;;;;12.83;74.69;95864.63;1835483;78;21461;-68
2022/05/13 00:11:02;;;;;;;11.28;7.47;;;;;;;12.81;74.49;95867.30;1834667;78;21003;-68
2022/05/13 00:13:29;;;;;;;8.33;7.17;;;;;;;12.78;74.78;95862.08;1835209;78;20984;-68
2022/05/13 00:15:56;;;;;;;6.85;6.12;;;;;;;12.78;74.56;95865.59;1835263;78;20992;-68
2022/05/13 00:18:23;;;;;;;7.72;6.50;;;;;;;12.79;74.96;95857.19;1835062;78;21003;-68
2022/05/13 00:20:50;;;;;;;9.08;6.20;;;;;;;12.77;74.92;95859.90;1835222;78;21368;-68
2022/05/13 00:23:17;;;;;;;11.70;7.03;;;;;;;12.79;75.03;95853.22;1835137;78;21047;-68
2022/05/13 00:25:44;;;;;;;10.75;6.50;;;;;;;12.77;75.15;95861.65;1834923;78;21012;-68
2022/05/13 00:28:11;;;;;;;8.55;5.80;;;;;;;12.76;75.13;95864.75;1835394;78;21430;-68
2022/05/13 00:30:42;;;;;;;9.30;6.45;;;;;;;12.75;75.23;95856.83;1835141;78;21015;-68
2022/05/13 00:33:14;;;;;;;7.17;5.70;;;;;;;12.75;75.99;95855.51;1833761;78;21070;-68
2022/05/13 00:35:40;;;;;;;9.80;6.45;;;;;;;12.68;75.20;95853.94;1830844;78;21088;-68
2022/05/13 00:38:06;;;;;;;7.55;6.00;;;;;;;12.68;75.66;95857.91;1831386;78;20969;-68
2022/05/13 00:40:35;;;;;;;8.30;6.65;;;;;;;12.69;75.21;95849.05;1831053;78;21560;-68
2022/05/13 00:43:07;;;;;;;9.65;6.70;;;;;;;12.62;74.46;95850.09;1831874;78;21102;-68
2022/05/13 00:45:34;;;;;;;11.12;7.28;;;;;;;12.59;75.28;95855.45;1831569;78;21063;-68
2022/05/13 00:48:01;;;;;;;11.22;6.58;;;;;;;12.63;75.15;95857.14;1831719;78;21527;-68
2022/05/13 00:50:33;;;;;;;7.67;6.20;;;;;;;12.55;75.78;95850.23;1831749;78;21000;-68
2022/05/13 00:53:02;;;;;;;10.85;6.97;;;;;;;12.48;75.54;95854.37;1831693;78;20987;-69
2022/05/13 00:55:39;;;;;;;7.50;6.67;;;;;;;12.40;75.96;95852.32;1831339;78;21051;-68
2022/05/13 00:58:10;;;;;;;13.18;8.23;;;;;;;12.38;75.73;95855.48;1831874;78;20988;-68
2022/05/13 01:00:37;;;;;;;9.18;7.03;;;;;;;12.27;75.80;95851.72;1831505;78;21028;-68
2022/05/13 01:03:06;;;;;;;7.60;6.40;;;;;;;12.16;77.24;95851.95;1831757;78;21493;-68
2022/05/13 01:05:34;;;;;;;8.78;6.17;;;;;;;12.08;77.73;95850.78;1831621;78;21492;-68
2022/05/13 01:08:05;;;;;;;8.40;6.50;;;;;;;12.12;77.44;95848.97;1831477;78;20937;-68
2022/05/13 01:10:34;;;;;;;11.40;7.57;;;;;;;12.10;77.46;95848.98;1831005;78;20972;-68
2022/05/13 01:13:07;;;;;;;10.03;7.83;;;;;;;12.04;77.89;95850.88;1831819;78;20988;-68
2022/05/13 01:15:37;;;;;;;9.65;8.48;;;;;;;12.01;77.68;95856.23;1831794;78;21062;-68
2022/05/13 01:18:05;;;;;;;10.23;8.43;;;;;;;11.96;77.93;95850.16;1831639;78;21023;-68
2022/05/13 01:20:46;;;;;;;8.40;6.80;;;;;;;11.96;78.11;95850.16;1831425;78;21022;-68
2022/05/13 01:23:20;;;;;;;9.87;8.03;;;;;;;11.99;77.59;95844.80;1831599;78;21000;-68
2022/05/13 01:25:49;;;;;;;9.68;7.00;;;;;;;12.03;77.39;95851.78;1830654;78;21131;-68
2022/05/13 01:28:22;;;;;;;7.50;6.33;;;;;;;12.05;77.77;95857.47;1831463;78;21060;-68
2022/05/13 01:30:54;;;;;;;7.67;6.78;;;;;;;12.08;77.70;95857.39;1831779;78;21009;-69
2022/05/13 01:33:22;;;;;;;8.43;6.30;;;;;;;12.11;77.45;95863.94;1831517;78;21012;-68
2022/05/13 01:35:53;;;;;;;8.88;7.08;;;;;;;12.12;77.27;95861.73;1831535;78;21513;-68
2022/05/13 01:38:25;;;;;;;7.40;6.30;;;;;;;12.06;76.57;95860.52;1831687;78;21004;-68
2022/05/13 01:40:52;;;;;;;10.47;6.90;;;;;;;12.01;76.14;95857.55;1831530;78;21012;-68
2022/05/13 01:43:20;;;;;;;11.17;6.97;;;;;;;11.85;77.12;95866.21;1831534;78;21039;-69
2022/05/13 01:45:47;;;;;;;9.57;7.40;;;;;;;11.72;77.48;95860.29;1831307;78;21020;-68
2022/05/13 01:48:15;;;;;;;7.83;6.73;;;;;;;11.70;77.06;95866.91;1831035;78;21507;-69
2022/05/13 01:50:42;;;;;;;9.37;6.83;;;;;;;11.76;77.82;95863.27;1831774;78;20975;-68
2022/05/13 01:53:09;;;;;;;9.60;7.30;;;;;;;11.76;77.94;95864.59;1831575;78;21565;-69
2022/05/13 01:55:42;;;;;;;12.17;7.27;;;;;;;11.79;77.53;95863.24;1831624;78;21003;-68
2022/05/13 01:58:06;;;;;;;11.50;7.47;;;;;;;11.75;77.19;95859.36;1831053;78;21020;-68
2022/05/13 02:00:33;;;;;;;12.60;7.90;;;;;;;11.71;77.63;95862.48;1831755;78;21046;-68
2022/05/13 02:05:44;;;;;;;6.97;5.20;;;;;;;11.75;77.44;95862.86;1831823;78;20982;-68
2022/05/13 02:08:11;;;;;;;7.07;4.60;;;;;;;11.83;78.63;95854.79;1831671;78;21473;-69
2022/05/13 02:10:37;;;;;;;10.70;5.30;;;;;;;11.89;79.02;95852.94;1831653;78;20953;-68
2022/05/13 02:13:04;;;;;;;9.27;6.27;;;;;;;11.91;78.31;95856.86;1831718;78;21016;-68
2022/05/13 02:15:31;;;;;;;8.97;6.03;;;;;;;11.89;78.19;95853.37;1831267;78;21512;-68
2022/05/13 02:17:58;;;;;;;6.87;5.70;;;;;;;11.87;77.78;95850.77;1831067;78;21047;-68
2022/05/13 02:20:24;;;;;;;10.63;6.97;;;;;;;11.87;77.69;95849.91;1831644;78;21031;-68
2022/05/13 02:22:51;;;;;;;9.30;7.00;;;;;;;11.87;78.49;95852.55;1831752;78;20992;-68
2022/05/13 02:25:18;;;;;;;9.50;7.00;;;;;;;11.82;78.28;95858.34;1831214;78;21071;-68
2022/05/13 02:27:44;;;;;;;14.30;7.20;;;;;;;11.80;78.48;95856.17;1831382;78;21023;-68
2022/05/13 02:30:13;;;;;;;6.57;5.93;;;;;;;11.78;78.54;95861.48;1831412;78;21008;-68
2022/05/13 02:32:40;;;;;;;7.47;5.73;;;;;;;11.75;78.23;95868.61;1831636;78;21012;-69
2022/05/13 02:35:09;;;;;;;6.77;6.03;;;;;;;11.76;78.30;95867.23;1834602;78;21071;-68
2022/05/13 02:37:35;;;;;;;7.63;6.27;;;;;;;11.78;78.75;95862.80;1835062;78;21525;-68
2022/05/13 02:40:03;;;;;;;8.57;6.10;;;;;;;11.80;78.46;95864.11;1835074;78;20972;-69
2022/05/13 02:42:30;;;;;;;8.10;5.97;;;;;;;11.78;78.99;95861.94;1834959;78;21043;-69
2022/05/13 02:44:57;;;;;;;7.60;6.30;;;;;;;11.77;77.92;95861.07;1834923;78;21004;-69
2022/05/13 02:47:23;;;;;;;8.37;6.73;;;;;;;11.59;78.59;95864.03;1834820;78;21035;-69
2022/05/13 02:50:17;;;;;;;6.50;5.90;;;;;;;11.52;78.50;95859.33;1835481;78;21011;-69
2022/05/13 02:52:18;;;;;;;10.33;6.50;;;;;;;11.55;78.40;95861.91;1830045;78;21047;-69
2022/05/13 02:54:45;;;;;;;5.97;5.37;;;;;;;11.54;79.32;95857.54;1835069;78;21008;-68
2022/05/13 02:57:11;;;;;;;10.00;7.67;;;;;;;11.54;79.32;95862.83;1834815;78;20996;-69
2022/05/13 02:59:38;;;;;;;7.77;6.37;;;;;;;11.47;79.47;95873.94;1834895;78;20999;-69
2022/05/13 03:02:04;;;;;;;6.77;6.10;;;;;;;11.41;78.69;95863.92;1834966;78;21074;-69
2022/05/13 03:04:31;;;;;;;9.83;5.73;;;;;;;11.48;79.23;95866.88;1835069;78;20968;-69
2022/05/13 03:06:57;;;;;;;6.77;5.33;;;;;;;11.53;79.64;95859.73;1835000;78;21026;-68
2022/05/13 03:09:24;;;;;;;6.03;5.00;;;;;;;11.50;80.06;95866.86;1835271;78;21014;-69
2022/05/13 03:11:52;;;;;;;6.97;5.23;;;;;;;11.47;80.73;95866.02;1835018;78;21007;-68
2022/05/13 03:14:18;;;;;;;7.57;6.33;;;;;;;11.46;80.85;95870.89;1835315;78;20979;-69
2022/05/13 03:16:46;;;;;;;7.10;6.07;;;;;;;11.50;80.34;95877.44;1834778;78;20984;-68
2022/05/13 03:19:12;;;;;;;11.17;7.03;;;;;;;11.48;80.26;95881.41;1835370;78;21023;-69
2022/05/13 03:21:39;;;;;;;9.20;6.43;;;;;;;11.47;80.37;95880.55;1835124;78;21012;-68
2022/05/13 03:24:06;;;;;;;12.20;6.03;;;;;;;11.50;80.44;95878.75;1834761;78;21083;-68
2022/05/13 03:26:33;;;;;;;6.73;4.93;;;;;;;11.58;80.68;95886.95;1834670;78;21051;-68
2022/05/13 03:28:59;;;;;;;7.67;5.23;;;;;;;11.63;79.81;95881.14;1835028;78;21520;-69
2022/05/13 03:31:26;;;;;;;5.63;5.10;;;;;;;11.70;80.66;95881.45;1835259;78;21043;-68
2022/05/13 03:33:53;;;;;;;9.20;5.10;;;;;;;11.77;80.53;95883.97;1833906;78;21477;-69
2022/05/13 03:36:19;;;;;;;9.63;5.67;;;;;;;11.87;80.14;95881.17;1831414;78;20980;-69
2022/05/13 03:38:46;;;;;;;27.73;16.60;;;;;;;11.92;79.88;95877.13;1831812;78;21489;-69
2022/05/13 03:41:13;;;;;;;14.90;9.23;;;;;;;11.90;79.57;95875.83;1831296;78;21012;-68
2022/05/13 03:43:40;;;;;;;19.03;13.43;;;;;;;12.04;79.68;95874.67;1831626;78;21044;-68
2022/05/13 03:46:07;;;;;;;21.07;12.25;;;;;;;12.09;79.24;95880.28;1831665;78;21008;-69
2022/05/13 03:48:33;;;;;;;17.63;11.80;;;;;;;12.16;79.15;95880.18;1831554;78;21455;-69
2022/05/13 03:51:00;;;;;;;20.03;12.40;;;;;;;12.21;78.62;95891.08;1831924;78;20983;-68
2022/05/13 03:53:27;;;;;;;17.87;10.75;;;;;;;12.26;78.75;95893.64;1831440;78;21075;-69
2022/05/13 03:55:53;;;;;;;16.73;11.25;;;;;;;12.40;78.69;95892.91;1831685;78;21353;-69
2022/05/13 03:58:20;;;;;;;16.57;10.43;;;;;;;12.46;78.43;95891.45;1831677;78;20996;-70
2022/05/13 04:00:46;;;;;;;14.40;9.80;;;;;;;12.55;78.57;95889.94;1831964;78;21015;-66
2022/05/13 04:03:14;;;;;;;12.60;9.28;;;;;;;12.58;78.37;95889.45;1831613;78;21013;-64
2022/05/13 04:11:11;;;;;;;13.28;9.40;;;;;;;12.68;77.90;95892.32;1831797;78;21520;-66
2022/05/13 04:16:22;;;;;;;13.37;10.07;;;;;;;12.86;77.66;95903.81;1831880;78;21008;-66
2022/05/13 04:18:54;;;;;;;11.40;9.40;;;;;;;12.93;77.55;95896.61;1831366;78;21489;-66
2022/05/13 04:21:24;;;;;;;14.85;11.15;;;;;;;13.06;77.80;95902.50;1830216;78;21628;-66
2022/05/13 04:23:55;;;;;;;10.75;9.15;;;;;;;13.13;77.42;95900.99;1831097;78;21015;-66
2022/05/13 04:26:23;;;;;;;9.50;8.38;;;;;;;13.17;78.07;95900.45;1831708;78;21015;-66
2022/05/13 04:28:52;;;;;;;15.08;9.65;;;;;;;13.17;78.64;95903.10;1831582;78;21011;-66
2022/05/13 04:31:26;;;;;;;14.65;9.23;;;;;;;13.24;78.57;95901.19;1831708;78;21051;-65
2022/05/13 04:33:54;;;;;;;12.93;8.98;;;;;;;13.33;78.40;95904.52;1831608;78;21474;-66
2022/05/13 04:36:23;;;;;;;11.53;8.48;;;;;;;13.38;78.03;95905.28;1831619;78;21042;-66
2022/05/13 04:38:52;;;;;;;15.32;8.78;;;;;;;13.42;78.49;95904.27;1831708;78;21004;-66
2022/05/13 04:44:06;;;;;;;14.80;9.85;;;;;;;13.51;78.19;95892.59;1831641;78;21019;-66
2022/05/13 04:46:33;;;;;;;19.50;9.18;;;;;;;13.63;78.04;95887.41;1831730;78;21473;-66
2022/05/13 04:49:00;;;;;;;11.45;7.87;;;;;;;13.76;77.95;95887.53;1831809;78;21469;-66
2022/05/13 04:51:26;;;;;;;13.95;8.68;;;;;;;13.87;77.37;95887.70;1831623;78;21508;-65
2022/05/13 04:53:55;;;;;;;13.70;9.15;;;;;;;13.99;77.14;95894.86;1831949;78;21035;-66
2022/05/13 04:56:24;;;;;;;16.85;10.13;;;;;;;14.15;77.23;95895.77;1831643;78;21565;-66
2022/05/13 04:58:51;;;;;;;16.85;9.28;;;;;;;14.33;77.05;95897.03;1831376;78;21035;-66
2022/05/13 05:01:20;;;;;;;18.85;9.50;;;;;;;14.49;76.64;95897.02;1831137;78;20980;-65
2022/05/13 05:03:47;;;;;;;16.87;10.15;;;;;;;14.67;76.39;95893.84;1830587;78;21010;-68
2022/05/13 05:06:16;;;;;;;16.45;8.78;;;;;;;14.85;75.90;95899.06;1831159;78;21426;-77
2022/05/13 05:08:44;;;;;;;16.48;9.00;;;;;;;15.01;75.43;95898.12;1831596;78;20979;-68
2022/05/13 05:11:13;;;;;;;14.15;8.35;;;;;;;15.19;75.27;95901.12;1831618;78;21011;-75
2022/05/13 05:13:44;;;;;;;18.07;8.43;;;;;;;15.32;74.96;95901.13;1831607;78;20988;-69
2022/05/13 05:16:11;;;;;;;13.53;8.25;;;;;;;15.51;75.13;95897.42;1830445;78;22113;-72
2022/05/13 05:18:40;;;;;;;18.32;8.03;;;;;;;15.72;75.09;95893.20;1831555;78;21011;-72
2022/05/13 05:21:09;;;;;;;18.60;7.92;;;;;;;15.95;74.74;95889.73;1831205;78;21581;-70
2022/05/13 05:23:39;;;;;;;15.35;8.00;;;;;;;16.18;73.83;95892.48;1831311;78;20991;-70
2022/05/13 05:26:07;;;;;;;15.88;8.35;;;;;;;16.30;72.61;95887.62;1831549;78;21062;-73
2022/05/13 05:28:33;;;;;;;16.52;8.45;;;;;;;16.42;72.66;95890.70;1831225;78;21069;-72
2022/05/13 05:31:01;;;;;;;16.97;8.93;;;;;;;16.60;72.59;95894.94;1831463;78;21004;-71
2022/05/13 05:33:28;;;;;;;18.80;9.25;;;;;;;16.66;72.14;95891.59;1831370;78;20992;-70
2022/05/13 05:35:55;;;;;;;17.48;10.48;;;;;;;16.69;72.04;95892.41;1831297;78;21027;-70
2022/05/13 05:38:23;;;;;;;17.40;9.63;;;;;;;16.75;71.83;95888.17;1831557;78;21446;-69
2022/05/13 05:40:50;;;;;;;21.87;9.80;;;;;;;16.90;71.84;95889.41;1831410;78;21031;-69
2022/05/13 05:43:19;;;;;;;15.25;9.53;;;;;;;17.08;71.59;95895.34;1831629;78;20960;-76
2022/05/13 05:45:46;;;;;;;21.50;10.75;;;;;;;17.25;71.04;95896.02;1831532;78;21019;-69
2022/05/13 05:48:21;;;;;;;21.85;9.30;;;;;;;17.38;70.67;95889.25;1831625;78;20996;-76
2022/05/13 05:50:44;;;;;;;15.70;8.83;;;;;;;17.55;70.36;95890.38;1830592;78;21083;-71
2022/05/13 05:53:10;;;;;;;20.23;8.68;;;;;;;17.68;70.02;95894.27;1831973;78;21049;-68
2022/05/13 05:58:22;;;;;;;28.12;8.30;;;;;;;18.10;68.65;95883.59;1783385;79;21050;-70
2022/05/13 06:00:51;;;;;;;27.20;8.88;;;;;;;18.10;68.65;95883.59;1777943;79;21485;-69
2022/05/13 06:03:19;;;;;;;18.87;8.18;;;;;;;18.16;68.36;95886.45;1780749;79;21080;-69
2022/05/13 06:05:50;;;;;;;15.15;8.60;;;;;;;18.29;68.51;95876.96;1763452;80;20952;-67
2022/05/13 06:08:17;;;;;;;19.35;8.23;;;;;;;18.56;68.41;95888.70;1742806;80;20971;-67
2022/05/13 06:10:43;;;;;;;13.05;8.30;;;;;;;18.71;67.43;95887.13;1745086;81;20963;-67
2022/05/13 06:13:11;;;;;;;14.00;7.15;;;;;;;18.92;67.58;95886.63;1742125;81;20990;-69
2022/05/13 06:15:38;;;;;;;14.73;6.72;;;;;;;19.11;66.87;95886.64;1780153;79;21036;-68
2022/05/13 06:18:05;;;;;;;10.50;6.15;;;;;;;19.18;64.50;95886.28;1783423;79;21055;-68
2022/05/13 06:20:32;;;;;;;12.60;6.17;;;;;;;19.23;62.96;95884.72;1780598;79;20978;-69
2022/05/13 06:22:59;;;;;;;7.85;5.97;;;;;;;19.24;62.58;95887.30;1786179;79;20963;-70
2022/05/13 06:25:26;;;;;;;8.65;5.55;;;;;;;19.20;62.48;95891.53;1791822;79;20944;-69
2022/05/13 06:27:54;;;;;;;10.20;6.35;;;;;;;19.16;61.82;95889.97;1752482;81;20971;-68
2022/05/13 06:30:26;;;;;;;11.80;6.00;;;;;;;19.13;62.81;95893.66;1747435;81;20999;-71
2022/05/13 06:32:54;;;;;;;13.55;7.03;;;;;;;19.14;63.14;95889.16;1778748;79;21539;-71
2022/05/13 06:35:23;;;;;;;11.18;6.50;;;;;;;19.28;63.66;95890.72;1745503;81;21047;-69
2022/05/13 06:37:51;;;;;;;11.45;6.53;;;;;;;19.42;63.48;95895.38;1735808;81;21464;-69
2022/05/13 06:40:18;;;;;;;8.18;7.05;;;;;;;19.55;63.65;95895.17;1715299;82;21038;-68
2022/05/13 06:42:45;;;;;;;13.72;7.30;;;;;;;19.67;63.55;95888.39;1707052;84;21068;-69
2022/05/13 06:45:12;;;;;;;15.30;6.37;;;;;;;19.79;64.01;95893.13;1706663;84;21523;-67
2022/05/13 06:47:39;;;;;;;12.28;6.60;;;;;;;19.88;64.00;95891.34;1731148;82;20985;-68
2022/05/13 06:50:09;;;;;;;14.15;5.50;;;;;;;20.08;62.97;95893.45;1739280;82;21496;-68
2022/05/13 06:52:36;;;;;;;14.25;6.17;;;;;;;20.23;61.88;95899.36;1738403;82;21387;-68
2022/05/13 06:55:04;;;;;;;8.73;6.15;;;;;;;20.30;60.27;95894.08;1739356;82;21528;-68
2022/05/13 06:57:31;;;;;;;13.62;6.05;;;;;;;20.40;60.11;95901.64;1738744;82;20996;-69
2022/05/13 06:59:57;;;;;;;15.65;6.12;;;;;;;20.48;59.57;95908.32;1738905;82;21002;-68
2022/05/13 07:02:27;;;;;;;13.03;5.47;;;;;;;20.53;59.58;95910.28;1739532;82;21108;-67
2022/05/13 07:04:53;;;;;;;13.28;5.95;;;;;;;20.59;58.62;95906.92;1739587;82;21484;-68
2022/05/13 07:07:19;;;;;;;11.50;5.80;;;;;;;20.68;58.20;95911.32;1739979;82;21030;-68
2022/05/13 07:09:46;;;;;;;11.25;5.78;;;;;;;20.82;58.58;95905.23;1740320;82;21006;-67
2022/05/13 07:12:12;;;;;;;13.40;6.40;;;;;;;20.93;57.15;95900.13;1740364;82;20947;-65
2022/05/13 07:14:39;;;;;;;8.53;5.50;;;;;;;21.06;57.66;95908.86;1739635;82;21022;-71
2022/05/13 07:17:07;;;;;;;7.58;5.67;;;;;;;21.17;56.88;95897.07;1740710;82;21435;-69
2022/05/13 07:19:34;;;;;;;14.03;5.58;;;;;;;21.43;56.51;95890.26;1740184;82;21147;-66
2022/05/13 07:22:03;;;;;;;15.28;6.03;;;;;;;21.72;56.63;95887.70;1740524;82;20986;-69
2022/05/13 07:24:30;;;;;;;11.83;5.50;;;;;;;22.04;56.87;95887.17;1740926;82;21038;-67
2022/05/13 07:26:58;;;;;;;9.98;5.80;;;;;;;22.34;55.73;95874.23;1740737;82;21507;-71
2022/05/13 07:29:24;;;;;;;11.20;5.33;;;;;;;22.53;55.81;95876.64;1739868;82;21053;-68
2022/05/13 07:31:51;;;;;;;10.03;5.03;;;;;;;22.66;55.21;95876.30;1740215;82;21492;-68
2022/05/13 07:34:18;;;;;;;17.82;5.10;;;;;;;22.75;52.91;95873.50;1740580;82;21005;-68
2022/05/13 07:36:45;;;;;;;5.97;4.72;;;;;;;22.80;52.75;95872.24;1758428;81;21563;-68
2022/05/13 07:41:56;;;;;;;6.40;4.62;;;;;;;23.20;49.44;95872.93;1758399;81;20997;-72
2022/05/13 07:44:24;;;;;;;8.48;4.30;;;;;;;23.44;51.67;95868.66;1758430;82;21053;-71
2022/05/13 07:46:51;;;;;;;7.50;4.28;;;;;;;23.51;44.63;95863.72;1758426;82;21520;-70
2022/05/13 07:49:17;;;;;;;7.28;4.95;;;;;;;23.50;46.24;95868.24;1757919;82;21552;-71
2022/05/13 07:51:44;;;;;;;12.05;5.00;;;;;;;23.50;47.35;95870.08;1758656;81;21022;-71
2022/05/13 07:54:11;;;;;;;7.47;4.37;;;;;;;23.45;46.66;95867.68;1758275;82;20971;-72
2022/05/13 07:56:37;;;;;;;8.03;4.83;;;;;;;23.51;43.67;95864.61;1758252;81;21011;-67
2022/05/13 07:59:04;;;;;;;7.62;5.05;;;;;;;23.66;45.57;95860.04;1758414;81;21503;-72
2022/05/13 08:01:31;;;;;;;5.60;4.22;;;;;;;23.74;44.97;95863.11;1758241;81;21050;-68
2022/05/13 08:03:58;;;;;;;7.40;4.08;;;;;;;23.88;42.43;95861.31;1757745;82;21030;-75
2022/05/13 08:06:25;;;;;;;10.00;5.85;;;;;;;24.06;41.96;95860.55;1758029;82;21007;-67
2022/05/13 08:08:58;;;;;;;7.10;4.80;;;;;;;24.15;40.77;95851.36;1758057;82;21106;-68
2022/05/13 08:11:31;;;;;;;8.65;4.92;;;;;;;24.35;42.27;95850.48;1758531;82;21066;-69
2022/05/13 08:13:58;;;;;;;8.65;4.80;;;;;;;24.61;43.80;95854.94;1731390;82;21543;-69
2022/05/13 08:16:29;;;;;;;9.83;4.65;;;;;;;24.81;43.08;95851.32;1758340;82;21070;-68
2022/05/13 08:18:58;;;;;;;11.53;4.67;;;;;;;24.97;43.02;95849.27;1758486;82;21019;-68
2022/05/13 08:21:25;;;;;;;5.97;4.20;;;;;;;25.19;40.66;95858.05;1758462;82;21527;-68
2022/05/13 08:23:52;;;;;;;10.08;4.50;;;;;;;25.27;40.24;95850.73;1758186;81;21030;-72
2022/05/13 08:26:19;;;;;;;8.43;4.50;;;;;;;25.24;38.62;95847.77;1758293;82;20975;-75
2022/05/13 08:28:46;;;;;;;8.68;4.00;;;;;;;25.29;38.57;95848.79;1757984;81;21086;-72
2022/05/13 08:31:14;;;;;;;6.78;4.40;;;;;;;25.52;38.14;95844.88;1758430;82;21018;-77
2022/05/13 08:33:42;;;;;;;5.37;3.75;;;;;;;25.69;38.77;95844.50;1758464;82;21007;-73
2022/05/13 08:36:09;;;;;;;5.83;3.95;;;;;;;25.93;38.38;95838.23;1762170;81;21006;-75
2022/05/13 08:38:39;;;;;;;6.20;3.92;;;;;;;26.09;37.47;95841.52;1765046;81;21117;-77
2022/05/13 08:41:14;;;;;;;6.97;4.28;;;;;;;26.14;38.95;95835.27;1765511;81;21527;-72
2022/05/13 08:43:52;;;;;;;8.95;4.33;;;;;;;26.19;38.82;95834.92;1764871;81;21042;-71
2022/05/13 08:46:45;;;;;;;7.33;4.20;;;;;;;26.28;39.05;95839.59;1764378;81;21069;-70
2022/05/13 08:49:38;;;;;;;;;;;;;;;26.47;37.01;95833.63;1767427;81;20987;-72
2022/05/13 08:55:15;;;;;;;8.40;4.70;;;;;;;26.49;35.67;95820.85;1765577;81;20978;-71
2022/05/13 08:57:46;;;;;;;6.65;4.87;;;;;;;26.59;37.02;95817.83;1765422;81;21010;-75
2022/05/13 09:00:21;;;;;;;8.43;4.08;;;;;;;26.70;36.80;95815.11;1765460;81;21043;-69
2022/05/13 09:03:05;;;;;;;5.78;4.35;;;;;;;26.77;35.57;95816.86;1764385;81;21526;-70
2022/05/13 09:06:00;;;;;;;4.70;4.08;;;;;;;26.82;36.05;95811.94;1764823;81;21011;-68
2022/05/13 09:08:27;;;;;;;6.10;4.50;;;;;;;26.89;37.13;95806.91;1764418;81;21014;-68
2022/05/13 09:11:03;;;;;;;8.30;4.40;;;;;;;27.22;36.93;95799.77;1764875;81;21077;-69
2022/05/13 09:13:57;;;;;;;7.20;4.60;;;;;;;27.40;37.26;95793.68;1764937;81;21038;-68
2022/05/13 09:16:51;;;;;;;6.25;4.10;;;;;;;27.65;37.29;95792.16;1765273;81;21562;-67
2022/05/13 09:19:27;;;;;;;8.13;4.17;;;;;;;27.87;35.67;95784.44;1761022;81;21582;-68
2022/05/13 09:21:53;;;;;;;5.50;4.53;;;;;;;27.97;33.25;95784.91;1756847;81;21026;-68
2022/05/13 09:24:20;;;;;;;6.28;4.25;;;;;;;27.93;35.71;95781.22;1765124;81;20995;-68
2022/05/13 09:26:46;;;;;;;9.13;4.78;;;;;;;27.88;37.04;95773.47;1765205;81;21507;-68
2022/05/13 09:29:17;;;;;;;6.70;4.50;;;;;;;27.89;36.65;95773.83;1764724;81;21074;-68
2022/05/13 09:31:50;;;;;;;6.42;4.20;;;;;;;27.78;35.49;95775.21;1763861;81;20990;-67
2022/05/13 09:34:36;;;;;;;7.35;4.17;;;;;;;27.75;36.03;95774.12;1759516;81;21532;-67
2022/05/13 09:37:14;;;;;;;9.75;4.85;;;;;;;27.80;36.43;95779.52;1764968;81;21524;-67
2022/05/13 09:39:45;;;;;;;10.80;4.60;;;;;;;27.67;36.06;95777.48;1764983;81;21094;-67
2022/05/13 09:42:27;;;;;;;8.90;4.80;;;;;;;27.77;35.92;95774.83;1764960;81;21030;-68
2022/05/13 09:45:17;;;;;;;10.75;4.85;;;;;;;27.78;35.31;95776.06;1733100;81;21026;-68
2022/05/13 09:47:48;;;;;;;8.20;4.33;;;;;;;27.36;34.88;95769.17;1753947;81;21002;-68
2022/05/13 09:50:26;;;;;;;9.13;4.60;;;;;;;27.39;35.50;95768.05;1762837;81;21555;-67
2022/05/13 09:52:57;;;;;;;6.87;4.40;;;;;;;27.13;35.15;95768.83;1763932;81;21102;-68
2022/05/13 09:55:37;;;;;;;6.15;3.92;;;;;;;27.09;36.18;95764.64;1761081;81;21057;-68
2022/05/13 09:58:10;;;;;;;6.60;5.30;;;;;;;27.30;35.98;95756.64;1765317;81;21030;-68
2022/05/13 10:00:40;;;;;;;6.62;4.50;;;;;;;27.52;37.34;95757.94;1760672;81;21006;-68
2022/05/13 10:03:23;;;;;;;7.33;4.75;;;;;;;27.68;36.70;95756.65;1765181;81;21022;-67
2022/05/13 10:06:19;;;;;;;8.70;4.50;;;;;;;27.79;36.33;95762.86;1763847;81;20998;-67
2022/05/13 10:14:41;;;;;;;8.45;4.50;;;;;;;27.87;35.19;95742.41;1736055;81;21516;-67
2022/05/13 10:17:13;;;;;;;8.25;4.28;;;;;;;27.56;35.26;95743.13;1761727;81;20967;-67
2022/05/13 10:19:51;;;;;;;10.25;4.72;;;;;;;27.41;36.31;95741.70;1761802;81;21564;-68
2022/05/13 10:22:38;;;;;;;5.80;4.90;;;;;;;27.11;37.34;95745.06;1761473;81;21046;-68
2022/05/13 10:25:20;;;;;;;8.48;5.03;;;;;;;26.75;38.24;95751.14;1761627;81;21564;-68
2022/05/13 10:28:01;;;;;;;8.68;5.10;;;;;;;26.43;38.65;95750.97;1761874;81;21034;-68
2022/05/13 10:31:02;;;;;;;6.45;5.47;;;;;;;26.42;38.34;95746.06;1760519;81;21063;-68
2022/05/13 10:33:38;;;;;;;6.30;5.65;;;;;;;26.53;39.52;95750.64;1761800;81;21002;-68
2022/05/13 10:36:21;;;;;;;9.90;6.40;;;;;;;26.01;41.25;95747.97;1756506;81;21079;-67
2022/05/13 10:39:05;;;;;;;9.40;6.05;;;;;;;25.67;42.11;95751.36;1800890;79;21007;-67
2022/05/13 10:41:49;;;;;;;11.10;5.42;;;;;;;25.38;42.53;95752.73;1762447;81;21027;-67
2022/05/13 10:44:42;;;;;;;8.18;5.65;;;;;;;25.12;43.26;95751.92;1763063;81;21066;-67
2022/05/13 10:47:20;;;;;;;7.05;5.87;;;;;;;25.10;43.75;95748.00;1763758;81;21087;-67
2022/05/13 10:49:48;;;;;;;9.15;6.25;;;;;;;25.21;44.56;95753.48;1763188;81;21026;-67
2022/05/13 10:52:50;;;;;;;7.40;5.45;;;;;;;25.79;44.33;95748.72;1763178;81;21014;-67
2022/05/13 10:55:31;;;;;;;7.22;6.12;;;;;;;26.28;43.91;95740.41;1762797;81;21038;-68
2022/05/13 10:58:30;;;;;;;7.58;5.33;;;;;;;26.51;42.26;95741.74;1763181;81;21062;-68
2022/05/13 11:01:15;;;;;;;7.72;5.40;;;;;;;26.66;41.64;95735.16;1669229;86;21528;-68
2022/05/13 11:04:07;;;;;;;9.38;5.50;;;;;;;27.11;41.73;95731.52;1669538;86;21049;-68
2022/05/13 11:07:00;;;;;;;7.70;5.10;;;;;;;27.41;40.83;95723.58;1742499;81;21553;-68
2022/05/13 11:10:08;;;;;;;5.60;4.75;;;;;;;27.78;40.44;95723.20;1744107;82;21544;-68
2022/05/13 11:12:46;;;;;;;7.50;5.40;;;;;;;28.13;38.88;95719.84;1742995;82;21055;-68
2022/05/13 11:16:07;;;;;;;5.00;4.50;;;;;;;28.36;38.60;95721.91;1733717;82;21063;-67
2022/05/13 11:19:00;;;;;;;6.67;5.28;;;;;;;28.62;37.62;95724.55;1744060;82;20988;-67
2022/05/13 11:21:48;;;;;;;5.33;4.85;;;;;;;28.57;37.51;95717.82;1743224;82;21059;-67
2022/05/13 11:27:44;;;;;;;6.40;5.72;;;;;;;28.68;38.19;95709.59;1744051;82;21078;-68
2022/05/13 11:30:21;;;;;;;6.83;5.42;;;;;;;29.07;38.09;95702.45;1743907;82;20984;-68
2022/05/13 11:33:14;;;;;;;6.60;4.97;;;;;;;28.98;37.52;95694.23;1743261;82;21027;-68
2022/05/13 11:35:52;;;;;;;6.22;4.70;;;;;;;29.20;37.24;95689.95;1697606;83;21015;-68
2022/05/13 11:38:25;;;;;;;7.35;5.25;;;;;;;29.43;36.04;95685.63;1731224;83;21564;-68
2022/05/13 11:41:08;;;;;;;6.90;4.95;;;;;;;29.12;35.67;95678.43;1733104;83;21028;-68
2022/05/13 11:44:05;;;;;;;6.53;4.75;;;;;;;29.10;36.10;95684.50;1731456;83;21552;-68
2022/05/13 11:47:06;;;;;;;5.85;5.20;;;;;;;28.96;36.81;95676.73;1732703;83;21029;-67
2022/05/13 11:49:43;;;;;;;6.00;5.22;;;;;;;29.39;37.07;95675.55;1731342;83;21034;-67
2022/05/13 11:52:28;;;;;;;9.78;5.58;;;;;;;30.14;35.70;95669.86;1726329;83;21022;-67
2022/05/13 11:55:31;;;;;;;7.10;4.62;;;;;;;30.41;32.52;95669.59;1734522;83;21013;-68
2022/05/13 11:57:58;;;;;;;9.38;4.50;;;;;;;30.49;32.87;95660.20;1795626;80;21038;-67
2022/05/13 12:00:36;;;;;;;6.90;4.72;;;;;;;31.04;33.28;95654.75;1795290;80;21116;-68
2022/05/13 12:03:14;;;;;;;7.78;4.95;;;;;;;31.61;32.85;95646.86;1795531;80;20985;-68
2022/05/13 12:06:04;;;;;;;7.12;4.47;;;;;;;31.86;32.56;95637.86;1795421;80;21026;-68
2022/05/13 12:08:41;;;;;;;7.47;4.53;;;;;;;32.46;31.73;95630.78;1795503;80;20998;-68
2022/05/13 12:11:43;;;;;;;7.08;4.22;;;;;;;32.75;31.43;95631.27;1795617;80;21002;-68
2022/05/13 12:14:34;;;;;;;7.30;3.90;;;;;;;32.81;28.36;95627.53;1795526;80;21014;-68
2022/05/13 12:17:21;;;;;;;6.47;4.70;;;;;;;32.43;30.31;95632.45;1795160;80;21496;-68
2022/05/13 12:19:53;;;;;;;4.75;4.00;;;;;;;32.43;30.51;95626.51;1795524;80;21109;-68
2022/05/13 12:22:34;;;;;;;4.53;4.08;;;;;;;31.94;30.73;95628.91;1795306;80;21006;-68